createdAt,value
2022-08-18T00:01:11.295Z,17.80
2022-08-18T00:03:55.932Z,21.77
2022-08-18T00:06:28.664Z,19.37
2022-08-18T00:08:57.235Z,16.83
2022-08-18T00:11:24.347Z,19.03
2022-08-18T00:13:51.377Z,15.43
2022-08-18T00:16:18.182Z,21.43
2022-08-18T00:18:44.993Z,21.13
2022-08-18T00:21:12.135Z,19.67
2022-08-18T00:23:38.967Z,19.07
2022-08-18T00:26:06.268Z,20.87
2022-08-18T00:28:33.190Z,24.77
2022-08-18T00:31:00.089Z,18.23
2022-08-18T00:33:27.399Z,17.70
2022-08-18T00:35:54.308Z,19.43
2022-08-18T00:38:23.548Z,22.17
2022-08-18T00:40:53.796Z,21.27
2022-08-18T00:43:41.194Z,26.13
2022-08-18T00:46:13.548Z,21.17
2022-08-18T00:48:40.614Z,22.23
2022-08-18T00:51:41.750Z,25.17
2022-08-18T00:54:29.628Z,22.60
2022-08-18T00:57:03.901Z,29.97
2022-08-18T01:00:03.499Z,23.53
2022-08-18T01:02:35.433Z,19.33
2022-08-18T01:05:12.472Z,24.33
2022-08-18T01:07:46.348Z,19.33
2022-08-18T01:10:18.679Z,18.53
2022-08-18T01:12:48.457Z,25.60
2022-08-18T01:15:28.900Z,19.80
2022-08-18T01:18:23.487Z,20.57
2022-08-18T01:21:14.665Z,20.90
2022-08-18T01:23:41.769Z,22.23
2022-08-18T01:26:09.441Z,23.10
2022-08-18T01:28:42.705Z,17.30
2022-08-18T01:31:11.347Z,24.47
2022-08-18T01:33:42.119Z,24.57
2022-08-18T01:36:17.981Z,22.43
2022-08-18T01:38:53.129Z,24.73
2022-08-18T01:41:29.512Z,24.57
2022-08-18T01:44:00.974Z,23.50
2022-08-18T01:46:31.744Z,25.13
2022-08-18T01:49:00.675Z,21.97
2022-08-18T01:51:38.905Z,22.53
2022-08-18T01:54:10.328Z,22.83
2022-08-18T01:56:37.252Z,19.23
2022-08-18T01:59:06.040Z,20.43
2022-08-18T02:01:37.593Z,20.93
2022-08-18T02:04:34.028Z,20.33
2022-08-18T02:07:01.206Z,17.43
2022-08-18T02:09:31.033Z,22.57
2022-08-18T02:11:57.824Z,18.50
2022-08-18T02:14:26.861Z,17.47
2022-08-18T02:17:01.699Z,17.03
2022-08-18T02:19:49.782Z,14.23
2022-08-18T02:22:19.604Z,14.60
2022-08-18T02:24:47.212Z,16.20
2022-08-18T02:27:15.749Z,18.33
2022-08-18T02:29:42.880Z,14.83
2022-08-18T02:32:09.732Z,17.23
2022-08-18T02:34:36.762Z,15.50
2022-08-18T02:37:04.413Z,18.17
2022-08-18T02:39:34.114Z,13.07
2022-08-18T02:42:00.945Z,17.57
2022-08-18T02:44:27.760Z,16.63
2022-08-18T02:46:55.296Z,13.53
2022-08-18T02:49:22.777Z,12.73
2022-08-18T02:51:51.200Z,13.30
2022-08-18T02:54:23.247Z,16.83
2022-08-18T02:56:51.777Z,16.33
2022-08-18T02:59:21.758Z,15.87
2022-08-18T03:01:51.411Z,15.37
2022-08-18T03:04:29.501Z,14.50
2022-08-18T03:06:59.430Z,12.23
2022-08-18T03:09:27.249Z,15.73
2022-08-18T03:11:54.649Z,12.17
2022-08-18T03:14:21.804Z,10.87
2022-08-18T03:16:53.936Z,15.13
2022-08-18T03:19:25.764Z,11.47
2022-08-18T03:21:52.912Z,12.47
2022-08-18T03:24:22.874Z,12.23
2022-08-18T03:26:51.986Z,18.23
2022-08-18T03:29:19.888Z,21.23
2022-08-18T03:31:48.604Z,13.37
2022-08-18T03:34:19.778Z,14.70
2022-08-18T03:36:48.304Z,18.43
2022-08-18T03:39:15.126Z,13.97
2022-08-18T03:41:58.571Z,14.20
2022-08-18T03:44:29.187Z,12.00
2022-08-18T03:46:56.203Z,12.23
2022-08-18T03:49:23.278Z,13.43
2022-08-18T03:51:51.701Z,14.77
2022-08-18T03:54:19.018Z,17.90
2022-08-18T03:56:47.902Z,14.57
2022-08-18T03:59:20.969Z,16.00
2022-08-18T04:01:50.089Z,15.03
2022-08-18T04:04:23.965Z,14.67
2022-08-18T04:07:01.396Z,15.53
2022-08-18T04:09:30.026Z,16.30
2022-08-18T04:11:58.362Z,22.00
2022-08-18T04:14:37.459Z,16.60
2022-08-18T04:17:04.569Z,15.13
2022-08-18T04:19:34.450Z,14.93
2022-08-18T04:22:03.355Z,15.03
2022-08-18T04:24:33.183Z,15.63
2022-08-18T04:27:02.531Z,17.67
2022-08-18T04:29:29.904Z,12.83
2022-08-18T04:31:57.077Z,16.47
2022-08-18T04:34:23.884Z,21.00
2022-08-18T04:36:54.365Z,17.87
2022-08-18T04:39:22.570Z,15.03
2022-08-18T04:41:50.396Z,23.13
2022-08-18T04:44:18.263Z,14.73
2022-08-18T04:46:49.058Z,18.93
2022-08-18T04:49:17.953Z,18.47
2022-08-18T04:52:36.565Z,15.40
2022-08-18T04:54:57.394Z,13.70
2022-08-18T04:57:25.167Z,12.73
2022-08-18T04:59:52.490Z,16.30
2022-08-18T05:02:21.406Z,17.63
2022-08-18T05:04:48.277Z,15.10
2022-08-18T05:07:18.793Z,14.60
2022-08-18T05:09:45.656Z,12.70
2022-08-18T05:12:14.232Z,15.40
2022-08-18T05:14:44.515Z,16.60
2022-08-18T05:17:12.714Z,12.47
2022-08-18T05:19:44.176Z,20.87
2022-08-18T05:22:14.567Z,15.70
2022-08-18T05:24:42.939Z,20.30
2022-08-18T05:27:09.872Z,14.93
2022-08-18T05:29:41.562Z,14.13
2022-08-18T05:32:12.385Z,16.57
2022-08-18T05:35:02.503Z,15.73
2022-08-18T05:37:40.139Z,22.13
2022-08-18T05:40:11.416Z,13.73
2022-08-18T05:42:40.807Z,15.37
2022-08-18T05:45:15.424Z,15.63
2022-08-18T05:47:42.264Z,14.90
2022-08-18T05:50:13.079Z,14.13
2022-08-18T05:53:01.195Z,15.30
2022-08-18T05:56:31.591Z,15.23
2022-08-18T05:59:01.316Z,14.00
2022-08-18T06:01:33.384Z,18.40
2022-08-18T06:04:22.439Z,13.90
2022-08-18T06:06:51.426Z,14.30
2022-08-18T06:09:22.461Z,15.47
2022-08-18T06:11:51.152Z,16.37
2022-08-18T06:14:19.018Z,11.93
2022-08-18T06:16:54.812Z,16.20
2022-08-18T06:19:43.965Z,15.10
2022-08-18T06:22:52.427Z,18.53
2022-08-18T06:25:35.899Z,15.63
2022-08-18T06:28:15.863Z,13.17
2022-08-18T06:30:42.850Z,13.67
2022-08-18T06:33:31.709Z,14.80
2022-08-18T06:36:12.675Z,16.80
2022-08-18T06:38:45.395Z,12.03
2022-08-18T06:41:41.633Z,12.20
2022-08-18T06:44:52.047Z,11.33
2022-08-18T06:47:37.645Z,12.10
2022-08-18T06:50:17.853Z,13.80
2022-08-18T06:53:27.202Z,12.63
2022-08-18T06:55:55.510Z,13.67
2022-08-18T06:58:30.613Z,13.33
2022-08-18T07:01:01.562Z,16.87
2022-08-18T07:03:37.945Z,14.27
2022-08-18T07:06:07.807Z,15.80
2022-08-18T07:08:40.807Z,12.67
2022-08-18T07:11:31.486Z,13.30
2022-08-18T07:14:22.750Z,13.17
2022-08-18T07:16:59.404Z,15.63
2022-08-18T07:19:30.269Z,16.37
2022-08-18T07:22:06.603Z,15.67
2022-08-18T07:24:47.376Z,14.77
2022-08-18T07:27:14.786Z,12.07
2022-08-18T07:30:06.070Z,12.57
2022-08-18T07:32:42.594Z,11.30
2022-08-18T07:35:12.686Z,13.30
2022-08-18T07:37:54.282Z,13.07
2022-08-18T07:40:27.549Z,11.07
2022-08-18T07:43:02.023Z,10.23
2022-08-18T07:45:41.102Z,10.93
2022-08-18T07:48:36.913Z,12.00
2022-08-18T07:51:32.633Z,10.13
2022-08-18T07:54:45.324Z,12.80
2022-08-18T07:57:30.587Z,13.63
2022-08-18T08:00:01.669Z,9.57
2022-08-18T08:02:55.309Z,9.13
2022-08-18T08:05:40.881Z,11.23
2022-08-18T08:08:25.915Z,9.57
2022-08-18T08:11:22.994Z,9.83
2022-08-18T08:13:56.810Z,10.67
2022-08-18T08:16:35.379Z,11.00
2022-08-18T08:19:59.547Z,10.20
2022-08-18T08:22:58.495Z,13.93
2022-08-18T08:25:47.879Z,9.90
2022-08-18T08:28:46.677Z,10.47
2022-08-18T08:31:38.408Z,10.90
2022-08-18T08:34:15.431Z,12.57
2022-08-18T08:36:45.877Z,15.60
2022-08-18T08:39:25.700Z,11.67
2022-08-18T08:42:30.244Z,13.13
2022-08-18T08:44:59.183Z,10.93
2022-08-18T08:47:36.686Z,10.63
2022-08-18T08:50:14.487Z,11.23
2022-08-18T08:53:14.651Z,12.30
2022-08-18T08:55:47.162Z,9.50
2022-08-18T08:58:21.285Z,10.90
2022-08-18T09:00:52.574Z,13.00
2022-08-18T09:03:38.412Z,12.77
2022-08-18T09:06:20.318Z,11.53
2022-08-18T09:08:59.102Z,11.93
2022-08-18T09:11:32.758Z,13.63
2022-08-18T09:14:18.448Z,13.80
2022-08-18T09:17:17.424Z,12.07
2022-08-18T09:20:21.640Z,11.20
2022-08-18T09:22:56.267Z,12.40
2022-08-18T09:25:37.641Z,11.50
2022-08-18T09:28:15.362Z,13.10
2022-08-18T09:30:54.361Z,13.80
2022-08-18T09:33:21.231Z,11.70
2022-08-18T09:36:01.811Z,13.10
2022-08-18T09:38:49.833Z,12.40
2022-08-18T09:41:32.249Z,13.20
2022-08-18T09:44:21.747Z,14.67
2022-08-18T09:46:56.053Z,13.00
2022-08-18T09:49:32.521Z,12.23
2022-08-18T09:52:24.220Z,14.23
2022-08-18T09:55:07.308Z,10.50
2022-08-18T09:57:42.643Z,12.80
2022-08-18T10:00:14.320Z,10.20
2022-08-18T10:02:41.848Z,12.17
2022-08-18T10:05:31.229Z,9.67
2022-08-18T10:08:07.077Z,10.47
2022-08-18T10:11:00.114Z,10.67
2022-08-18T10:14:09.651Z,11.10
2022-08-18T10:20:01.726Z,9.30
2022-08-18T10:22:50.475Z,10.57
2022-08-18T10:25:42.999Z,10.63
2022-08-18T10:28:33.134Z,10.13
2022-08-18T10:31:10.536Z,9.33
2022-08-18T10:33:59.500Z,10.90
2022-08-18T10:39:47.731Z,11.00
2022-08-18T10:42:38.145Z,9.37
2022-08-18T10:51:21.309Z,15.03
2022-08-18T10:53:59.939Z,9.83
2022-08-18T10:56:49.917Z,14.70
2022-08-18T10:59:50.605Z,10.40
2022-08-18T11:02:21.163Z,11.80
2022-08-18T11:07:43.017Z,12.70
2022-08-18T11:11:24.828Z,11.67
2022-08-18T11:13:52.881Z,12.35
2022-08-18T11:16:58.529Z,13.37
2022-08-18T11:19:25.790Z,12.27
2022-08-18T11:21:53.596Z,16.80
2022-08-18T11:24:25.108Z,12.10
2022-08-18T11:26:59.184Z,15.47
2022-08-18T11:29:29.057Z,15.40
2022-08-18T11:32:17.980Z,16.50
2022-08-18T11:35:01.575Z,14.17
2022-08-18T11:37:48.979Z,10.50
2022-08-18T11:41:08.758Z,12.30
2022-08-18T11:43:21.442Z,10.67
2022-08-18T11:46:38.754Z,12.07
2022-08-18T11:49:28.402Z,10.47
2022-08-18T11:52:03.318Z,11.87
2022-08-18T11:54:50.824Z,12.20
2022-08-18T11:57:54.494Z,10.90
2022-08-18T12:00:45.936Z,13.77
2022-08-18T12:03:40.753Z,10.00
2022-08-18T12:06:30.629Z,9.60
2022-08-18T12:09:03.507Z,10.93
2022-08-18T12:11:50.418Z,8.93
2022-08-18T12:14:32.456Z,9.40
2022-08-18T12:17:02.521Z,9.00
2022-08-18T12:19:31.185Z,9.83
2022-08-18T12:22:10.950Z,11.13
2022-08-18T12:24:40.069Z,11.83
2022-08-18T12:27:20.639Z,11.77
2022-08-18T12:29:50.305Z,13.03
2022-08-18T12:32:18.281Z,11.53
2022-08-18T12:38:11.326Z,9.07
2022-08-18T12:40:41.940Z,11.23
2022-08-18T12:43:09.183Z,8.82
2022-08-18T12:45:38.011Z,9.65
2022-08-18T12:48:05.342Z,8.20
2022-08-18T12:50:41.153Z,8.35
2022-08-18T12:53:29.862Z,9.07
2022-08-18T12:56:25.747Z,8.02
2022-08-18T12:58:53.675Z,7.82
2022-08-18T13:01:23.218Z,9.25
2022-08-18T13:04:11.202Z,7.70
2022-08-18T13:06:50.357Z,7.43
2022-08-18T13:09:35.345Z,9.98
2022-08-18T13:12:16.740Z,8.25
2022-08-18T13:14:44.483Z,11.48
2022-08-18T13:17:32.421Z,7.80
2022-08-18T13:19:59.675Z,6.90
2022-08-18T13:22:32.349Z,7.95
2022-08-18T13:25:00.998Z,7.53
2022-08-18T13:27:30.913Z,8.43
2022-08-18T13:30:00.699Z,8.00
2022-08-18T13:32:29.842Z,6.25
2022-08-18T13:35:13.322Z,8.52
2022-08-18T13:37:41.830Z,7.20
2022-08-18T13:40:12.645Z,7.30
2022-08-18T13:42:50.914Z,8.85
2022-08-18T13:45:26.224Z,7.47
2022-08-18T13:47:53.120Z,8.27
2022-08-18T13:50:29.787Z,8.38
2022-08-18T13:53:02.076Z,7.05
2022-08-18T13:55:32.440Z,8.63
2022-08-18T13:58:00.655Z,7.43
2022-08-18T14:00:31.091Z,6.28
2022-08-18T14:03:03.275Z,6.70
2022-08-18T14:05:50.708Z,7.20
2022-08-18T14:08:19.973Z,6.07
2022-08-18T14:10:53.305Z,6.95
2022-08-18T14:13:24.966Z,6.28
2022-08-18T14:15:56.128Z,7.07
2022-08-18T14:18:28.748Z,7.35
2022-08-18T14:21:16.974Z,5.88
2022-08-18T14:24:10.664Z,6.80
2022-08-18T14:26:51.544Z,6.03
2022-08-18T14:29:45.706Z,6.47
2022-08-18T14:32:07.650Z,7.97
2022-08-18T14:34:34.591Z,4.50
2022-08-18T14:37:03.054Z,4.88
2022-08-18T14:39:30.472Z,5.38
2022-08-18T14:41:58.612Z,4.90
2022-08-18T14:44:30.304Z,8.05
2022-08-18T14:46:59.842Z,5.88
2022-08-18T14:49:31.055Z,4.60
2022-08-18T14:51:59.753Z,4.97
2022-08-18T14:54:28.306Z,6.95
2022-08-18T14:56:55.467Z,6.10
2022-08-18T14:59:23.225Z,4.80
2022-08-18T15:01:51.419Z,4.75
2022-08-18T15:04:19.825Z,4.28
2022-08-18T15:06:56.560Z,4.07
2022-08-18T15:09:29.816Z,4.93
2022-08-18T15:11:58.791Z,3.85
2022-08-18T15:14:32.709Z,5.13
2022-08-18T15:17:01.493Z,3.50
2022-08-18T15:19:37.848Z,4.60
2022-08-18T15:22:33.838Z,6.20
2022-08-18T15:25:19.179Z,5.38
2022-08-18T15:27:52.415Z,4.68
2022-08-18T15:30:21.247Z,5.15
2022-08-18T15:32:49.881Z,4.13
2022-08-18T15:35:17.859Z,4.50
2022-08-18T15:37:51.040Z,4.50
2022-08-18T15:40:31.079Z,5.28
2022-08-18T15:43:09.931Z,4.32
2022-08-18T15:45:56.280Z,4.40
2022-08-18T15:48:26.433Z,5.72
2022-08-18T15:50:53.610Z,4.30
2022-08-18T15:53:25.445Z,7.43
2022-08-18T15:55:57.247Z,5.95
2022-08-18T15:58:26.995Z,5.30
2022-08-18T16:00:56.462Z,5.00
2022-08-18T16:03:25.858Z,4.15
2022-08-18T16:05:54.947Z,4.18
2022-08-18T16:08:24.973Z,4.97
2022-08-18T16:10:53.475Z,3.78
2022-08-18T16:13:21.053Z,4.63
2022-08-18T16:15:50.010Z,5.07
2022-08-18T16:18:19.007Z,4.65
2022-08-18T16:20:45.886Z,3.33
2022-08-18T16:23:13.650Z,5.82
2022-08-18T16:25:44.371Z,4.82
2022-08-18T16:28:13.258Z,4.63
2022-08-18T16:30:40.931Z,6.47
2022-08-18T16:33:08.529Z,4.78
2022-08-18T16:35:37.167Z,4.70
2022-08-18T16:38:09.216Z,5.30
2022-08-18T16:40:37.622Z,4.10
2022-08-18T16:43:05.972Z,4.78
2022-08-18T16:45:34.641Z,3.85
2022-08-18T16:48:02.433Z,4.35
2022-08-18T16:50:29.759Z,4.78
2022-08-18T16:52:57.646Z,4.88
2022-08-18T16:55:24.555Z,4.00
2022-08-18T16:58:14.870Z,7.72
2022-08-18T17:01:01.121Z,4.90
2022-08-18T17:03:46.459Z,3.58
2022-08-18T17:06:16.160Z,4.47
2022-08-18T17:08:43.943Z,4.65
2022-08-18T17:11:18.976Z,4.95
2022-08-18T17:13:48.589Z,5.00
2022-08-18T17:16:16.872Z,3.75
2022-08-18T17:18:44.685Z,4.40
2022-08-18T17:21:16.289Z,5.40
2022-08-18T17:23:43.180Z,4.15
2022-08-18T17:26:20.367Z,3.83
2022-08-18T17:28:53.357Z,4.50
2022-08-18T17:31:24.453Z,3.92
2022-08-18T17:34:02.192Z,4.80
2022-08-18T17:36:56.579Z,8.35
2022-08-18T17:39:37.810Z,5.15
2022-08-18T17:42:23.841Z,4.35
2022-08-18T17:44:52.560Z,4.32
2022-08-18T17:47:34.568Z,3.83
2022-08-18T17:50:26.806Z,5.30
2022-08-18T17:53:01.032Z,4.90
2022-08-18T17:55:34.466Z,4.13
2022-08-18T17:58:07.251Z,6.00
2022-08-18T18:00:34.108Z,3.63
2022-08-18T18:03:01.450Z,3.97
2022-08-18T18:05:39.151Z,3.53
2022-08-18T18:08:06.284Z,5.95
2022-08-18T18:11:05.489Z,5.97
2022-08-18T18:13:33.859Z,4.72
2022-08-18T18:16:20.242Z,5.55
2022-08-18T18:18:56.463Z,5.37
2022-08-18T18:22:01.068Z,4.50
2022-08-18T18:24:15.629Z,4.47
2022-08-18T18:26:48.403Z,3.50
2022-08-18T18:29:15.188Z,4.93
2022-08-18T18:31:44.948Z,6.07
2022-08-18T18:34:27.847Z,4.17
2022-08-18T18:36:56.210Z,4.53
2022-08-18T18:39:33.650Z,5.17
2022-08-18T18:42:15.117Z,5.97
2022-08-18T18:44:52.022Z,4.77
2022-08-18T18:47:30.544Z,6.17
2022-08-18T18:50:02.260Z,4.93
2022-08-18T18:52:57.521Z,8.07
2022-08-18T18:55:27.852Z,3.70
2022-08-18T18:58:27.305Z,4.40
2022-08-18T19:00:59.535Z,4.13
2022-08-18T19:03:38.160Z,3.27
2022-08-18T19:06:24.383Z,5.00
2022-08-18T19:09:02.308Z,3.27
2022-08-18T19:11:29.575Z,4.60
2022-08-18T19:14:02.730Z,3.67
2022-08-18T19:16:54.112Z,3.60
2022-08-18T19:19:35.752Z,5.03
2022-08-18T19:22:10.087Z,5.17
2022-08-18T19:25:04.129Z,10.47
2022-08-18T19:27:40.057Z,4.93
2022-08-18T19:30:13.807Z,4.20
2022-08-18T19:32:44.899Z,3.33
2022-08-18T19:35:19.770Z,4.87
2022-08-18T19:38:04.419Z,4.10
2022-08-18T19:40:51.795Z,2.50
2022-08-18T19:43:33.163Z,4.63
2022-08-18T19:46:12.455Z,4.80
2022-08-18T19:48:57.788Z,5.10
2022-08-18T19:51:37.458Z,3.33
2022-08-18T19:54:07.151Z,2.50
2022-08-18T19:57:11.778Z,4.07
2022-08-18T19:59:57.240Z,5.77
2022-08-18T20:02:25.350Z,2.83
2022-08-18T20:05:06.252Z,3.37
2022-08-18T20:07:42.440Z,4.37
2022-08-18T20:10:41.715Z,4.20
2022-08-18T20:13:33.073Z,4.97
2022-08-18T20:16:11.735Z,4.27
2022-08-18T20:18:43.057Z,5.40
2022-08-18T20:21:15.923Z,5.30
2022-08-18T20:24:07.264Z,4.07
2022-08-18T20:26:40.121Z,3.60
2022-08-18T20:29:13.065Z,4.10
2022-08-18T20:31:49.243Z,7.93
2022-08-18T20:34:31.066Z,3.90
2022-08-18T20:37:00.726Z,4.03
2022-08-18T20:39:33.512Z,5.67
2022-08-18T20:42:03.119Z,6.63
2022-08-18T20:44:43.327Z,5.63
2022-08-18T20:47:55.301Z,4.80
2022-08-18T20:50:34.340Z,5.90
2022-08-18T20:53:19.930Z,5.53
2022-08-18T20:56:31.341Z,6.23
2022-08-18T20:59:08.746Z,5.20
2022-08-18T21:01:37.039Z,7.80
2022-08-18T21:04:06.190Z,5.63
2022-08-18T21:06:38.752Z,5.10
2022-08-18T21:09:05.747Z,5.37
2022-08-18T21:11:43.166Z,5.90
2022-08-18T21:14:12.841Z,4.90
2022-08-18T21:16:45.037Z,5.50
2022-08-18T21:19:19.591Z,5.87
2022-08-18T21:21:56.143Z,4.23
2022-08-18T21:24:31.632Z,3.30
2022-08-18T21:27:05.290Z,4.07
2022-08-18T21:29:46.189Z,5.63
2022-08-18T21:32:31.912Z,3.50
2022-08-18T21:35:22.220Z,5.00
2022-08-18T21:38:15.359Z,5.40
2022-08-18T21:40:46.925Z,6.40
2022-08-18T21:43:51.905Z,6.83
2022-08-18T21:46:28.372Z,7.17
2022-08-18T21:48:57.596Z,5.30
2022-08-18T21:51:31.149Z,6.47
2022-08-18T21:53:59.290Z,6.27
2022-08-18T21:56:32.221Z,5.50
2022-08-18T21:59:07.367Z,5.00
2022-08-18T22:01:36.795Z,5.40
2022-08-18T22:04:27.596Z,5.60
2022-08-18T22:06:58.238Z,4.97
2022-08-18T22:09:51.652Z,4.63
2022-08-18T22:12:50.124Z,4.60
2022-08-18T22:15:35.408Z,4.13
2022-08-18T22:18:06.130Z,4.33
2022-08-18T22:20:48.148Z,4.10
2022-08-18T22:23:33.528Z,4.10
2022-08-18T22:26:23.544Z,4.60
2022-08-18T22:28:54.103Z,4.33
2022-08-18T22:31:23.227Z,3.60
2022-08-18T22:33:51.528Z,5.60
2022-08-18T22:36:25.843Z,3.47
2022-08-18T22:38:52.752Z,5.43
2022-08-18T22:41:20.531Z,4.63
2022-08-18T22:43:50.420Z,8.23
2022-08-18T22:46:24.104Z,4.67
2022-08-18T22:48:52.669Z,4.77
2022-08-18T22:51:23.588Z,4.53
2022-08-18T22:53:51.318Z,5.07
2022-08-18T22:56:26.471Z,4.00
2022-08-18T22:59:05.883Z,5.00
2022-08-18T23:01:42.677Z,4.43
2022-08-18T23:04:11.267Z,4.27
2022-08-18T23:06:38.574Z,4.53
2022-08-18T23:09:05.880Z,5.03
2022-08-18T23:11:32.988Z,3.20
2022-08-18T23:14:02.202Z,5.20
2022-08-18T23:16:31.703Z,4.23
2022-08-18T23:19:02.266Z,5.03
2022-08-18T23:21:34.829Z,4.97
2022-08-18T23:24:06.840Z,5.77
2022-08-18T23:26:34.350Z,4.57
2022-08-18T23:29:02.133Z,6.13
2022-08-18T23:31:30.135Z,4.50
2022-08-18T23:33:57.447Z,4.20
2022-08-18T23:36:25.671Z,5.23
2022-08-18T23:38:54.146Z,6.90
2022-08-18T23:41:21.736Z,4.13
2022-08-18T23:43:50.737Z,4.70
2022-08-18T23:46:23.838Z,5.47
2022-08-18T23:48:52.501Z,4.07
2022-08-18T23:51:42.643Z,3.90
2022-08-18T23:54:17.729Z,4.43
2022-08-18T23:56:45.832Z,6.30
2022-08-18T23:59:13.592Z,5.57
